sensor_id;sensor_type;location;lat;lon;timestamp;P1;durP1;ratioP1;P2;durP2;ratioP2
46090;SDS011;31826;53.572;10.170;2022-10-26T00:00:24;16.58;;;5.57;;
46090;SDS011;31826;53.572;10.170;2022-10-26T00:02:52;14.82;;;5.10;;
46090;SDS011;31826;53.572;10.170;2022-10-26T00:05:19;13.30;;;5.40;;
46090;SDS011;31826;53.572;10.170;2022-10-26T00:07:46;16.23;;;5.60;;
46090;SDS011;31826;53.572;10.170;2022-10-26T00:10:12;13.30;;;5.50;;
46090;SDS011;31826;53.572;10.170;2022-10-26T00:12:37;13.27;;;5.00;;
46090;SDS011;31826;53.572;10.170;2022-10-26T00:15:03;11.43;;;5.00;;
46090;SDS011;31826;53.572;10.170;2022-10-26T00:17:30;11.50;;;4.95;;
46090;SDS011;31826;53.572;10.170;2022-10-26T00:19:55;12.93;;;5.15;;
46090;SDS011;31826;53.572;10.170;2022-10-26T00:22:21;13.95;;;5.25;;
46090;SDS011;31826;53.572;10.170;2022-10-26T00:24:47;13.82;;;4.95;;
46090;SDS011;31826;53.572;10.170;2022-10-26T00:27:13;12.32;;;5.40;;
46090;SDS011;31826;53.572;10.170;2022-10-26T00:29:39;13.93;;;5.32;;
46090;SDS011;31826;53.572;10.170;2022-10-26T00:32:04;10.20;;;4.88;;
46090;SDS011;31826;53.572;10.170;2022-10-26T00:34:30;18.65;;;5.25;;
46090;SDS011;31826;53.572;10.170;2022-10-26T00:36:56;11.00;;;5.00;;
46090;SDS011;31826;53.572;10.170;2022-10-26T00:39:22;12.35;;;4.88;;
46090;SDS011;31826;53.572;10.170;2022-10-26T00:41:48;11.93;;;4.43;;
46090;SDS011;31826;53.572;10.170;2022-10-26T00:47:11;11.95;;;4.82;;
46090;SDS011;31826;53.572;10.170;2022-10-26T00:49:37;12.82;;;4.90;;
46090;SDS011;31826;53.572;10.170;2022-10-26T00:52:03;10.77;;;4.53;;
46090;SDS011;31826;53.572;10.170;2022-10-26T00:54:31;9.60;;;4.32;;
46090;SDS011;31826;53.572;10.170;2022-10-26T00:56:56;11.50;;;4.63;;
46090;SDS011;31826;53.572;10.170;2022-10-26T00:59:23;13.65;;;5.40;;
46090;SDS011;31826;53.572;10.170;2022-10-26T01:01:49;9.98;;;4.30;;
46090;SDS011;31826;53.572;10.170;2022-10-26T01:04:16;10.27;;;4.25;;
46090;SDS011;31826;53.572;10.170;2022-10-26T01:06:43;11.80;;;4.80;;
46090;SDS011;31826;53.572;10.170;2022-10-26T01:09:10;12.27;;;4.82;;
46090;SDS011;31826;53.572;10.170;2022-10-26T01:11:36;14.43;;;5.07;;
46090;SDS011;31826;53.572;10.170;2022-10-26T01:14:03;11.95;;;4.57;;
46090;SDS011;31826;53.572;10.170;2022-10-26T01:27:22;12.00;;;5.72;;
46090;SDS011;31826;53.572;10.170;2022-10-26T01:35:13;10.60;;;4.75;;
46090;SDS011;31826;53.572;10.170;2022-10-26T01:37:48;14.27;;;5.27;;
46090;SDS011;31826;53.572;10.170;2022-10-26T01:42:48;12.40;;;5.33;;
46090;SDS011;31826;53.572;10.170;2022-10-26T01:45:17;14.77;;;5.70;;
46090;SDS011;31826;53.572;10.170;2022-10-26T01:47:43;14.30;;;5.25;;
46090;SDS011;31826;53.572;10.170;2022-10-26T01:50:11;12.57;;;5.10;;
46090;SDS011;31826;53.572;10.170;2022-10-26T01:52:37;16.17;;;5.97;;
46090;SDS011;31826;53.572;10.170;2022-10-26T01:55:05;14.65;;;5.47;;
46090;SDS011;31826;53.572;10.170;2022-10-26T01:57:51;15.07;;;5.57;;
46090;SDS011;31826;53.572;10.170;2022-10-26T02:00:20;12.88;;;5.75;;
46090;SDS011;31826;53.572;10.170;2022-10-26T02:08:13;13.93;;;6.10;;
46090;SDS011;31826;53.572;10.170;2022-10-26T02:10:54;18.00;;;6.07;;
46090;SDS011;31826;53.572;10.170;2022-10-26T02:18:39;16.63;;;6.63;;
46090;SDS011;31826;53.572;10.170;2022-10-26T02:21:11;13.77;;;6.03;;
46090;SDS011;31826;53.572;10.170;2022-10-26T02:23:44;13.80;;;5.80;;
46090;SDS011;31826;53.572;10.170;2022-10-26T02:26:12;16.85;;;6.38;;
46090;SDS011;31826;53.572;10.170;2022-10-26T02:28:43;16.70;;;6.03;;
46090;SDS011;31826;53.572;10.170;2022-10-26T02:31:12;21.00;;;6.57;;
46090;SDS011;31826;53.572;10.170;2022-10-26T02:33:39;17.55;;;6.13;;
46090;SDS011;31826;53.572;10.170;2022-10-26T02:36:10;15.25;;;6.22;;
46090;SDS011;31826;53.572;10.170;2022-10-26T02:38:38;13.75;;;6.60;;
46090;SDS011;31826;53.572;10.170;2022-10-26T02:41:06;16.63;;;5.90;;
46090;SDS011;31826;53.572;10.170;2022-10-26T02:43:35;15.07;;;5.77;;
46090;SDS011;31826;53.572;10.170;2022-10-26T02:46:07;15.10;;;6.00;;
46090;SDS011;31826;53.572;10.170;2022-10-26T02:48:38;14.60;;;5.68;;
46090;SDS011;31826;53.572;10.170;2022-10-26T02:51:11;14.68;;;6.15;;
46090;SDS011;31826;53.572;10.170;2022-10-26T02:56:15;15.93;;;5.95;;
46090;SDS011;31826;53.572;10.170;2022-10-26T02:58:46;14.40;;;5.90;;
46090;SDS011;31826;53.572;10.170;2022-10-26T03:01:16;13.77;;;5.93;;
46090;SDS011;31826;53.572;10.170;2022-10-26T03:03:42;17.10;;;6.40;;
46090;SDS011;31826;53.572;10.170;2022-10-26T03:06:08;14.30;;;6.35;;
46090;SDS011;31826;53.572;10.170;2022-10-26T03:08:34;17.60;;;5.60;;
46090;SDS011;31826;53.572;10.170;2022-10-26T03:10:59;15.85;;;6.03;;
46090;SDS011;31826;53.572;10.170;2022-10-26T03:13:25;14.73;;;6.40;;
46090;SDS011;31826;53.572;10.170;2022-10-26T03:15:54;14.95;;;6.10;;
46090;SDS011;31826;53.572;10.170;2022-10-26T03:18:20;15.77;;;5.97;;
46090;SDS011;31826;53.572;10.170;2022-10-26T03:20:46;14.43;;;6.72;;
46090;SDS011;31826;53.572;10.170;2022-10-26T03:23:12;14.38;;;6.70;;
46090;SDS011;31826;53.572;10.170;2022-10-26T03:25:37;15.13;;;6.20;;
46090;SDS011;31826;53.572;10.170;2022-10-26T03:28:03;14.20;;;6.33;;
46090;SDS011;31826;53.572;10.170;2022-10-26T03:30:30;16.80;;;6.18;;
46090;SDS011;31826;53.572;10.170;2022-10-26T03:32:56;17.48;;;6.82;;
46090;SDS011;31826;53.572;10.170;2022-10-26T03:35:22;16.00;;;6.07;;
46090;SDS011;31826;53.572;10.170;2022-10-26T03:37:48;14.90;;;5.60;;
46090;SDS011;31826;53.572;10.170;2022-10-26T03:40:14;13.88;;;6.03;;
46090;SDS011;31826;53.572;10.170;2022-10-26T03:42:40;15.05;;;6.32;;
46090;SDS011;31826;53.572;10.170;2022-10-26T03:45:06;15.60;;;6.67;;
46090;SDS011;31826;53.572;10.170;2022-10-26T03:47:33;12.53;;;5.87;;
46090;SDS011;31826;53.572;10.170;2022-10-26T03:49:58;13.73;;;6.60;;
46090;SDS011;31826;53.572;10.170;2022-10-26T03:52:24;13.67;;;6.00;;
46090;SDS011;31826;53.572;10.170;2022-10-26T03:54:50;14.30;;;6.30;;
46090;SDS011;31826;53.572;10.170;2022-10-26T03:57:16;15.13;;;7.13;;
46090;SDS011;31826;53.572;10.170;2022-10-26T03:59:42;16.40;;;6.93;;
46090;SDS011;31826;53.572;10.170;2022-10-26T04:02:08;14.52;;;6.40;;
46090;SDS011;31826;53.572;10.170;2022-10-26T04:04:33;17.08;;;6.43;;
46090;SDS011;31826;53.572;10.170;2022-10-26T04:06:59;16.53;;;7.47;;
46090;SDS011;31826;53.572;10.170;2022-10-26T04:09:25;17.33;;;7.30;;
46090;SDS011;31826;53.572;10.170;2022-10-26T04:11:50;20.63;;;8.17;;
46090;SDS011;31826;53.572;10.170;2022-10-26T04:14:16;15.83;;;6.67;;
46090;SDS011;31826;53.572;10.170;2022-10-26T04:16:42;15.45;;;7.00;;
46090;SDS011;31826;53.572;10.170;2022-10-26T04:19:07;16.23;;;7.78;;
46090;SDS011;31826;53.572;10.170;2022-10-26T04:21:33;16.75;;;7.18;;
46090;SDS011;31826;53.572;10.170;2022-10-26T04:23:59;16.10;;;7.18;;
46090;SDS011;31826;53.572;10.170;2022-10-26T04:26:26;16.88;;;7.43;;
46090;SDS011;31826;53.572;10.170;2022-10-26T04:28:52;20.97;;;7.50;;
46090;SDS011;31826;53.572;10.170;2022-10-26T04:31:18;19.95;;;8.20;;
46090;SDS011;31826;53.572;10.170;2022-10-26T04:33:44;16.05;;;7.25;;
46090;SDS011;31826;53.572;10.170;2022-10-26T04:36:09;17.80;;;7.97;;
46090;SDS011;31826;53.572;10.170;2022-10-26T04:38:35;16.15;;;7.25;;
46090;SDS011;31826;53.572;10.170;2022-10-26T04:41:01;17.40;;;7.93;;
46090;SDS011;31826;53.572;10.170;2022-10-26T04:43:27;21.07;;;7.90;;
46090;SDS011;31826;53.572;10.170;2022-10-26T04:45:56;17.67;;;7.35;;
46090;SDS011;31826;53.572;10.170;2022-10-26T04:48:22;15.88;;;7.32;;
46090;SDS011;31826;53.572;10.170;2022-10-26T04:50:48;16.02;;;7.70;;
46090;SDS011;31826;53.572;10.170;2022-10-26T04:53:13;19.03;;;7.90;;
46090;SDS011;31826;53.572;10.170;2022-10-26T04:55:39;20.43;;;7.93;;
46090;SDS011;31826;53.572;10.170;2022-10-26T04:58:05;16.98;;;7.47;;
46090;SDS011;31826;53.572;10.170;2022-10-26T05:00:31;19.35;;;8.18;;
46090;SDS011;31826;53.572;10.170;2022-10-26T05:03:01;21.05;;;9.23;;
46090;SDS011;31826;53.572;10.170;2022-10-26T05:05:29;16.70;;;8.23;;
46090;SDS011;31826;53.572;10.170;2022-10-26T05:07:56;21.95;;;8.00;;
46090;SDS011;31826;53.572;10.170;2022-10-26T05:10:23;17.58;;;8.27;;
46090;SDS011;31826;53.572;10.170;2022-10-26T05:12:50;18.92;;;7.70;;
46090;SDS011;31826;53.572;10.170;2022-10-26T05:15:16;21.10;;;8.68;;
46090;SDS011;31826;53.572;10.170;2022-10-26T05:17:42;19.00;;;7.70;;
46090;SDS011;31826;53.572;10.170;2022-10-26T05:20:08;17.27;;;7.22;;
46090;SDS011;31826;53.572;10.170;2022-10-26T05:22:37;16.60;;;7.00;;
46090;SDS011;31826;53.572;10.170;2022-10-26T05:25:03;15.70;;;7.28;;
46090;SDS011;31826;53.572;10.170;2022-10-26T05:27:29;14.77;;;7.25;;
46090;SDS011;31826;53.572;10.170;2022-10-26T05:29:55;17.63;;;6.85;;
46090;SDS011;31826;53.572;10.170;2022-10-26T05:32:20;19.90;;;7.45;;
46090;SDS011;31826;53.572;10.170;2022-10-26T05:34:46;17.98;;;7.15;;
46090;SDS011;31826;53.572;10.170;2022-10-26T05:37:12;18.17;;;7.60;;
46090;SDS011;31826;53.572;10.170;2022-10-26T05:39:38;17.00;;;7.80;;
46090;SDS011;31826;53.572;10.170;2022-10-26T05:42:03;19.40;;;7.15;;
46090;SDS011;31826;53.572;10.170;2022-10-26T05:44:29;18.38;;;7.47;;
46090;SDS011;31826;53.572;10.170;2022-10-26T05:46:55;14.73;;;7.00;;
46090;SDS011;31826;53.572;10.170;2022-10-26T05:49:21;16.37;;;6.70;;
46090;SDS011;31826;53.572;10.170;2022-10-26T05:51:46;16.37;;;6.93;;
46090;SDS011;31826;53.572;10.170;2022-10-26T05:54:12;16.10;;;6.77;;
46090;SDS011;31826;53.572;10.170;2022-10-26T05:56:38;17.13;;;7.45;;
46090;SDS011;31826;53.572;10.170;2022-10-26T05:59:12;17.87;;;7.07;;
46090;SDS011;31826;53.572;10.170;2022-10-26T06:04:29;16.58;;;7.13;;
46090;SDS011;31826;53.572;10.170;2022-10-26T06:07:13;18.00;;;8.38;;
46090;SDS011;31826;53.572;10.170;2022-10-26T06:09:40;15.68;;;7.07;;
46090;SDS011;31826;53.572;10.170;2022-10-26T06:12:07;16.10;;;7.63;;
46090;SDS011;31826;53.572;10.170;2022-10-26T06:14:34;14.10;;;6.70;;
46090;SDS011;31826;53.572;10.170;2022-10-26T06:19:57;18.02;;;7.70;;
46090;SDS011;31826;53.572;10.170;2022-10-26T06:22:31;23.70;;;8.00;;
46090;SDS011;31826;53.572;10.170;2022-10-26T06:30:38;19.43;;;7.60;;
46090;SDS011;31826;53.572;10.170;2022-10-26T06:33:05;22.60;;;8.43;;
46090;SDS011;31826;53.572;10.170;2022-10-26T06:38:24;20.00;;;8.23;;
46090;SDS011;31826;53.572;10.170;2022-10-26T06:40:54;18.75;;;8.43;;
46090;SDS011;31826;53.572;10.170;2022-10-26T06:43:24;16.63;;;7.70;;
46090;SDS011;31826;53.572;10.170;2022-10-26T06:51:36;19.63;;;8.67;;
46090;SDS011;31826;53.572;10.170;2022-10-26T06:56:55;20.37;;;9.20;;
46090;SDS011;31826;53.572;10.170;2022-10-26T06:59:24;24.90;;;9.80;;
46090;SDS011;31826;53.572;10.170;2022-10-26T07:01:57;21.02;;;9.10;;
46090;SDS011;31826;53.572;10.170;2022-10-26T07:04:23;20.13;;;9.30;;
46090;SDS011;31826;53.572;10.170;2022-10-26T07:06:48;20.53;;;9.10;;
46090;SDS011;31826;53.572;10.170;2022-10-26T07:09:14;21.27;;;8.88;;
46090;SDS011;31826;53.572;10.170;2022-10-26T07:11:40;22.48;;;9.65;;
46090;SDS011;31826;53.572;10.170;2022-10-26T07:14:05;21.65;;;8.88;;
46090;SDS011;31826;53.572;10.170;2022-10-26T07:16:32;22.77;;;9.38;;
46090;SDS011;31826;53.572;10.170;2022-10-26T07:18:58;22.10;;;9.20;;
46090;SDS011;31826;53.572;10.170;2022-10-26T07:21:23;22.57;;;9.50;;
46090;SDS011;31826;53.572;10.170;2022-10-26T07:23:49;22.63;;;9.47;;
46090;SDS011;31826;53.572;10.170;2022-10-26T07:26:16;24.63;;;9.95;;
46090;SDS011;31826;53.572;10.170;2022-10-26T07:28:42;20.80;;;9.80;;
46090;SDS011;31826;53.572;10.170;2022-10-26T07:31:07;23.73;;;9.67;;
46090;SDS011;31826;53.572;10.170;2022-10-26T07:33:34;22.55;;;9.40;;
46090;SDS011;31826;53.572;10.170;2022-10-26T07:35:59;23.98;;;10.60;;
46090;SDS011;31826;53.572;10.170;2022-10-26T07:38:25;20.60;;;9.45;;
46090;SDS011;31826;53.572;10.170;2022-10-26T07:40:51;23.67;;;10.07;;
46090;SDS011;31826;53.572;10.170;2022-10-26T07:43:18;20.27;;;10.25;;
46090;SDS011;31826;53.572;10.170;2022-10-26T07:45:47;20.52;;;9.55;;
46090;SDS011;31826;53.572;10.170;2022-10-26T07:48:13;24.10;;;9.32;;
46090;SDS011;31826;53.572;10.170;2022-10-26T07:50:39;23.77;;;10.43;;
46090;SDS011;31826;53.572;10.170;2022-10-26T07:53:05;25.43;;;10.60;;
46090;SDS011;31826;53.572;10.170;2022-10-26T07:55:30;25.73;;;10.23;;
46090;SDS011;31826;53.572;10.170;2022-10-26T07:57:56;24.08;;;9.82;;
46090;SDS011;31826;53.572;10.170;2022-10-26T08:00:22;20.92;;;8.57;;
46090;SDS011;31826;53.572;10.170;2022-10-26T08:02:47;21.48;;;9.63;;
46090;SDS011;31826;53.572;10.170;2022-10-26T08:05:13;22.33;;;8.75;;
46090;SDS011;31826;53.572;10.170;2022-10-26T08:07:39;18.48;;;7.70;;
46090;SDS011;31826;53.572;10.170;2022-10-26T08:10:06;21.52;;;9.32;;
46090;SDS011;31826;53.572;10.170;2022-10-26T08:12:32;18.98;;;9.27;;
46090;SDS011;31826;53.572;10.170;2022-10-26T08:14:58;18.58;;;8.95;;
46090;SDS011;31826;53.572;10.170;2022-10-26T08:17:24;19.67;;;9.27;;
46090;SDS011;31826;53.572;10.170;2022-10-26T08:19:49;19.50;;;8.87;;
46090;SDS011;31826;53.572;10.170;2022-10-26T08:22:15;17.13;;;7.93;;
46090;SDS011;31826;53.572;10.170;2022-10-26T08:24:41;19.45;;;8.50;;
46090;SDS011;31826;53.572;10.170;2022-10-26T08:27:10;21.05;;;9.38;;
46090;SDS011;31826;53.572;10.170;2022-10-26T08:29:38;19.17;;;8.43;;
46090;SDS011;31826;53.572;10.170;2022-10-26T08:32:04;18.95;;;9.52;;
46090;SDS011;31826;53.572;10.170;2022-10-26T08:34:30;17.58;;;8.00;;
46090;SDS011;31826;53.572;10.170;2022-10-26T08:36:55;18.27;;;7.38;;
46090;SDS011;31826;53.572;10.170;2022-10-26T08:39:21;18.40;;;8.23;;
46090;SDS011;31826;53.572;10.170;2022-10-26T08:41:48;16.13;;;7.53;;
46090;SDS011;31826;53.572;10.170;2022-10-26T08:47:16;22.35;;;7.75;;
46090;SDS011;31826;53.572;10.170;2022-10-26T08:49:56;15.48;;;7.50;;
46090;SDS011;31826;53.572;10.170;2022-10-26T08:53:11;15.30;;;7.00;;
46090;SDS011;31826;53.572;10.170;2022-10-26T08:55:17;15.45;;;6.45;;
46090;SDS011;31826;53.572;10.170;2022-10-26T08:57:45;14.23;;;6.25;;
46090;SDS011;31826;53.572;10.170;2022-10-26T09:00:16;14.30;;;6.05;;
46090;SDS011;31826;53.572;10.170;2022-10-26T09:02:48;16.10;;;6.17;;
46090;SDS011;31826;53.572;10.170;2022-10-26T09:05:16;13.90;;;6.05;;
46090;SDS011;31826;53.572;10.170;2022-10-26T09:07:54;13.90;;;5.53;;
46090;SDS011;31826;53.572;10.170;2022-10-26T09:10:39;16.15;;;5.32;;
46090;SDS011;31826;53.572;10.170;2022-10-26T09:13:27;14.20;;;5.53;;
46090;SDS011;31826;53.572;10.170;2022-10-26T09:16:31;10.87;;;5.07;;
46090;SDS011;31826;53.572;10.170;2022-10-26T09:24:37;12.25;;;4.45;;
46090;SDS011;31826;53.572;10.170;2022-10-26T09:29:50;10.77;;;4.13;;
46090;SDS011;31826;53.572;10.170;2022-10-26T09:32:18;12.18;;;4.28;;
46090;SDS011;31826;53.572;10.170;2022-10-26T09:34:50;10.52;;;3.80;;
46090;SDS011;31826;53.572;10.170;2022-10-26T09:37:24;10.27;;;3.58;;
46090;SDS011;31826;53.572;10.170;2022-10-26T09:40:38;8.27;;;3.15;;
46090;SDS011;31826;53.572;10.170;2022-10-26T09:43:01;8.38;;;3.30;;
46090;SDS011;31826;53.572;10.170;2022-10-26T09:45:42;7.93;;;3.03;;
46090;SDS011;31826;53.572;10.170;2022-10-26T09:48:15;6.35;;;2.83;;
46090;SDS011;31826;53.572;10.170;2022-10-26T09:50:47;6.20;;;2.60;;
46090;SDS011;31826;53.572;10.170;2022-10-26T09:53:14;8.18;;;2.75;;
46090;SDS011;31826;53.572;10.170;2022-10-26T09:55:41;7.78;;;2.97;;
46090;SDS011;31826;53.572;10.170;2022-10-26T09:58:28;7.80;;;2.45;;
46090;SDS011;31826;53.572;10.170;2022-10-26T10:00:56;8.18;;;2.75;;
46090;SDS011;31826;53.572;10.170;2022-10-26T10:03:26;4.87;;;2.60;;
46090;SDS011;31826;53.572;10.170;2022-10-26T10:06:13;6.97;;;2.30;;
46090;SDS011;31826;53.572;10.170;2022-10-26T10:08:40;5.95;;;2.17;;
46090;SDS011;31826;53.572;10.170;2022-10-26T10:11:10;5.13;;;2.17;;
46090;SDS011;31826;53.572;10.170;2022-10-26T10:13:38;5.65;;;2.20;;
46090;SDS011;31826;53.572;10.170;2022-10-26T10:18:54;8.48;;;2.92;;
46090;SDS011;31826;53.572;10.170;2022-10-26T10:21:38;5.07;;;2.30;;
46090;SDS011;31826;53.572;10.170;2022-10-26T10:29:24;5.60;;;2.20;;
46090;SDS011;31826;53.572;10.170;2022-10-26T10:31:55;6.20;;;2.00;;
46090;SDS011;31826;53.572;10.170;2022-10-26T10:34:21;5.70;;;2.10;;
46090;SDS011;31826;53.572;10.170;2022-10-26T10:36:48;7.80;;;2.33;;
46090;SDS011;31826;53.572;10.170;2022-10-26T10:42:14;4.60;;;2.00;;
46090;SDS011;31826;53.572;10.170;2022-10-26T10:44:51;6.20;;;2.10;;
46090;SDS011;31826;53.572;10.170;2022-10-26T10:47:23;7.28;;;2.33;;
46090;SDS011;31826;53.572;10.170;2022-10-26T10:50:04;4.50;;;2.08;;
46090;SDS011;31826;53.572;10.170;2022-10-26T10:52:39;5.85;;;1.90;;
46090;SDS011;31826;53.572;10.170;2022-10-26T10:57:45;6.63;;;2.42;;
46090;SDS011;31826;53.572;10.170;2022-10-26T11:00:26;3.97;;;2.00;;
46090;SDS011;31826;53.572;10.170;2022-10-26T11:03:11;4.90;;;2.00;;
46090;SDS011;31826;53.572;10.170;2022-10-26T11:05:54;5.38;;;2.50;;
46090;SDS011;31826;53.572;10.170;2022-10-26T11:08:49;6.75;;;2.65;;
46090;SDS011;31826;53.572;10.170;2022-10-26T11:16:30;7.07;;;2.43;;
46090;SDS011;31826;53.572;10.170;2022-10-26T11:19:25;6.25;;;2.40;;
46090;SDS011;31826;53.572;10.170;2022-10-26T11:21:54;5.80;;;2.40;;
46090;SDS011;31826;53.572;10.170;2022-10-26T11:27:11;6.90;;;2.38;;
46090;SDS011;31826;53.572;10.170;2022-10-26T11:43:05;6.80;;;2.83;;
46090;SDS011;31826;53.572;10.170;2022-10-26T11:45:44;7.88;;;3.20;;
46090;SDS011;31826;53.572;10.170;2022-10-26T11:48:14;12.27;;;5.13;;
46090;SDS011;31826;53.572;10.170;2022-10-26T11:50:44;6.95;;;2.88;;
46090;SDS011;31826;53.572;10.170;2022-10-26T11:53:20;4.97;;;2.60;;
46090;SDS011;31826;53.572;10.170;2022-10-26T11:55:50;5.43;;;2.70;;
46090;SDS011;31826;53.572;10.170;2022-10-26T11:58:18;8.40;;;2.80;;
46090;SDS011;31826;53.572;10.170;2022-10-26T12:00:51;8.43;;;3.10;;
46090;SDS011;31826;53.572;10.170;2022-10-26T12:03:32;7.07;;;2.30;;
46090;SDS011;31826;53.572;10.170;2022-10-26T12:06:01;6.50;;;2.60;;
46090;SDS011;31826;53.572;10.170;2022-10-26T12:08:41;8.38;;;2.92;;
46090;SDS011;31826;53.572;10.170;2022-10-26T12:22:27;6.07;;;2.63;;
46090;SDS011;31826;53.572;10.170;2022-10-26T12:37:55;7.18;;;2.50;;
46090;SDS011;31826;53.572;10.170;2022-10-26T12:45:39;4.38;;;2.50;;
46090;SDS011;31826;53.572;10.170;2022-10-26T12:48:38;6.05;;;2.60;;
46090;SDS011;31826;53.572;10.170;2022-10-26T12:56:29;4.90;;;2.40;;
46090;SDS011;31826;53.572;10.170;2022-10-26T13:04:58;5.55;;;2.35;;
46090;SDS011;31826;53.572;10.170;2022-10-26T13:07:43;7.32;;;2.63;;
46090;SDS011;31826;53.572;10.170;2022-10-26T13:15:28;6.63;;;2.10;;
46090;SDS011;31826;53.572;10.170;2022-10-26T13:18:19;5.50;;;2.17;;
46090;SDS011;31826;53.572;10.170;2022-10-26T13:23:33;5.82;;;2.38;;
46090;SDS011;31826;53.572;10.170;2022-10-26T13:26:04;6.47;;;2.00;;
46090;SDS011;31826;53.572;10.170;2022-10-26T13:28:32;5.88;;;2.47;;
46090;SDS011;31826;53.572;10.170;2022-10-26T13:30:57;3.67;;;1.95;;
46090;SDS011;31826;53.572;10.170;2022-10-26T13:33:28;4.93;;;2.22;;
46090;SDS011;31826;53.572;10.170;2022-10-26T13:36:01;6.18;;;2.20;;
46090;SDS011;31826;53.572;10.170;2022-10-26T13:38:31;8.60;;;2.58;;
46090;SDS011;31826;53.572;10.170;2022-10-26T13:41:03;7.28;;;2.60;;
46090;SDS011;31826;53.572;10.170;2022-10-26T13:43:31;12.40;;;2.25;;
46090;SDS011;31826;53.572;10.170;2022-10-26T13:46:00;4.80;;;2.28;;
46090;SDS011;31826;53.572;10.170;2022-10-26T13:48:35;5.93;;;2.10;;
46090;SDS011;31826;53.572;10.170;2022-10-26T13:51:11;9.48;;;2.47;;
46090;SDS011;31826;53.572;10.170;2022-10-26T13:53:53;7.47;;;2.40;;
46090;SDS011;31826;53.572;10.170;2022-10-26T13:56:32;6.97;;;2.58;;
46090;SDS011;31826;53.572;10.170;2022-10-26T13:59:19;5.67;;;1.90;;
46090;SDS011;31826;53.572;10.170;2022-10-26T14:02:04;6.97;;;2.40;;
46090;SDS011;31826;53.572;10.170;2022-10-26T14:04:33;4.85;;;1.80;;
46090;SDS011;31826;53.572;10.170;2022-10-26T14:06:59;4.35;;;1.90;;
46090;SDS011;31826;53.572;10.170;2022-10-26T14:09:25;8.55;;;2.33;;
46090;SDS011;31826;53.572;10.170;2022-10-26T14:11:55;6.32;;;2.10;;
46090;SDS011;31826;53.572;10.170;2022-10-26T14:14:25;6.27;;;2.20;;
46090;SDS011;31826;53.572;10.170;2022-10-26T14:16:57;5.47;;;2.05;;
46090;SDS011;31826;53.572;10.170;2022-10-26T14:19:24;5.93;;;2.00;;
46090;SDS011;31826;53.572;10.170;2022-10-26T14:21:54;4.70;;;1.90;;
46090;SDS011;31826;53.572;10.170;2022-10-26T14:24:21;6.60;;;1.85;;
46090;SDS011;31826;53.572;10.170;2022-10-26T14:26:48;7.43;;;2.05;;
46090;SDS011;31826;53.572;10.170;2022-10-26T14:29:18;5.15;;;2.13;;
46090;SDS011;31826;53.572;10.170;2022-10-26T14:31:46;6.73;;;2.20;;
46090;SDS011;31826;53.572;10.170;2022-10-26T14:34:16;4.93;;;2.17;;
46090;SDS011;31826;53.572;10.170;2022-10-26T14:36:44;5.07;;;1.85;;
46090;SDS011;31826;53.572;10.170;2022-10-26T14:39:29;6.15;;;2.00;;
46090;SDS011;31826;53.572;10.170;2022-10-26T14:41:56;9.73;;;2.25;;
46090;SDS011;31826;53.572;10.170;2022-10-26T14:44:23;7.60;;;2.45;;
46090;SDS011;31826;53.572;10.170;2022-10-26T14:46:50;6.43;;;2.10;;
46090;SDS011;31826;53.572;10.170;2022-10-26T14:49:19;5.20;;;1.80;;
46090;SDS011;31826;53.572;10.170;2022-10-26T14:51:47;4.63;;;2.05;;
46090;SDS011;31826;53.572;10.170;2022-10-26T14:54:20;6.75;;;2.20;;
46090;SDS011;31826;53.572;10.170;2022-10-26T14:56:47;7.70;;;2.65;;
46090;SDS011;31826;53.572;10.170;2022-10-26T15:01:54;4.22;;;1.95;;
46090;SDS011;31826;53.572;10.170;2022-10-26T15:04:36;5.97;;;2.35;;
46090;SDS011;31826;53.572;10.170;2022-10-26T15:07:08;4.32;;;1.70;;
46090;SDS011;31826;53.572;10.170;2022-10-26T15:09:44;4.07;;;1.83;;
46090;SDS011;31826;53.572;10.170;2022-10-26T15:12:21;4.80;;;1.73;;
46090;SDS011;31826;53.572;10.170;2022-10-26T15:17:42;8.93;;;2.10;;
46090;SDS011;31826;53.572;10.170;2022-10-26T15:20:18;6.03;;;2.67;;
46090;SDS011;31826;53.572;10.170;2022-10-26T15:22:49;6.78;;;1.67;;
46090;SDS011;31826;53.572;10.170;2022-10-26T15:25:19;6.43;;;2.00;;
46090;SDS011;31826;53.572;10.170;2022-10-26T15:27:47;5.40;;;2.00;;
46090;SDS011;31826;53.572;10.170;2022-10-26T15:30:19;4.13;;;1.85;;
46090;SDS011;31826;53.572;10.170;2022-10-26T15:32:47;6.35;;;2.03;;
46090;SDS011;31826;53.572;10.170;2022-10-26T15:35:25;7.60;;;2.55;;
46090;SDS011;31826;53.572;10.170;2022-10-26T15:37:52;3.40;;;2.10;;
46090;SDS011;31826;53.572;10.170;2022-10-26T15:40:19;7.97;;;1.95;;
46090;SDS011;31826;53.572;10.170;2022-10-26T15:42:47;3.13;;;1.75;;
46090;SDS011;31826;53.572;10.170;2022-10-26T15:45:21;5.25;;;2.10;;
46090;SDS011;31826;53.572;10.170;2022-10-26T15:47:50;5.97;;;2.05;;
46090;SDS011;31826;53.572;10.170;2022-10-26T15:50:21;5.00;;;2.45;;
46090;SDS011;31826;53.572;10.170;2022-10-26T15:52:48;6.25;;;2.40;;
46090;SDS011;31826;53.572;10.170;2022-10-26T15:55:18;7.80;;;2.50;;
46090;SDS011;31826;53.572;10.170;2022-10-26T15:57:44;6.23;;;2.50;;
46090;SDS011;31826;53.572;10.170;2022-10-26T16:00:13;5.30;;;2.10;;
46090;SDS011;31826;53.572;10.170;2022-10-26T16:02:41;9.48;;;2.40;;
46090;SDS011;31826;53.572;10.170;2022-10-26T16:05:09;4.65;;;1.88;;
46090;SDS011;31826;53.572;10.170;2022-10-26T16:07:37;6.32;;;2.17;;
46090;SDS011;31826;53.572;10.170;2022-10-26T16:10:04;4.82;;;1.88;;
46090;SDS011;31826;53.572;10.170;2022-10-26T16:12:30;14.80;;;8.35;;
46090;SDS011;31826;53.572;10.170;2022-10-26T16:14:55;6.23;;;2.23;;
46090;SDS011;31826;53.572;10.170;2022-10-26T16:17:21;7.50;;;2.33;;
46090;SDS011;31826;53.572;10.170;2022-10-26T16:19:47;5.67;;;2.20;;
46090;SDS011;31826;53.572;10.170;2022-10-26T16:22:12;7.28;;;2.20;;
46090;SDS011;31826;53.572;10.170;2022-10-26T16:24:38;5.03;;;2.47;;
46090;SDS011;31826;53.572;10.170;2022-10-26T16:27:04;5.95;;;2.30;;
46090;SDS011;31826;53.572;10.170;2022-10-26T16:29:30;8.20;;;2.47;;
46090;SDS011;31826;53.572;10.170;2022-10-26T16:31:55;7.47;;;2.37;;
46090;SDS011;31826;53.572;10.170;2022-10-26T16:34:21;4.72;;;2.20;;
46090;SDS011;31826;53.572;10.170;2022-10-26T16:36:47;5.68;;;2.20;;
46090;SDS011;31826;53.572;10.170;2022-10-26T16:39:12;6.13;;;1.95;;
46090;SDS011;31826;53.572;10.170;2022-10-26T16:41:38;5.60;;;2.15;;
46090;SDS011;31826;53.572;10.170;2022-10-26T16:44:04;4.63;;;2.17;;
46090;SDS011;31826;53.572;10.170;2022-10-26T16:46:30;6.83;;;2.37;;
46090;SDS011;31826;53.572;10.170;2022-10-26T16:48:55;7.00;;;2.60;;
46090;SDS011;31826;53.572;10.170;2022-10-26T16:51:24;10.20;;;4.45;;
46090;SDS011;31826;53.572;10.170;2022-10-26T16:53:52;8.93;;;3.20;;
46090;SDS011;31826;53.572;10.170;2022-10-26T16:56:20;9.80;;;3.92;;
46090;SDS011;31826;53.572;10.170;2022-10-26T16:58:50;10.27;;;3.20;;
46090;SDS011;31826;53.572;10.170;2022-10-26T17:01:17;6.82;;;2.85;;
46090;SDS011;31826;53.572;10.170;2022-10-26T17:03:44;10.05;;;3.67;;
46090;SDS011;31826;53.572;10.170;2022-10-26T17:06:14;9.77;;;2.58;;
46090;SDS011;31826;53.572;10.170;2022-10-26T17:08:41;5.75;;;2.42;;
46090;SDS011;31826;53.572;10.170;2022-10-26T17:11:07;12.27;;;3.80;;
46090;SDS011;31826;53.572;10.170;2022-10-26T17:13:35;6.82;;;2.45;;
46090;SDS011;31826;53.572;10.170;2022-10-26T17:16:05;9.52;;;3.10;;